Time;durP1;ratioP1;P1;durP2;ratioP2;P2;SDS_P1;SDS_P2;PMS_P1;PMS_P2;Temp;Humidity;BMP_temperature;BMP_pressure;BME280_temperature;BME280_humidity;BME280_pressure;Samples;Min_cycle;Max_cycle;Signal;HPM_P1;HPM_P2
2023/08/17 00:00:18;;;;;;;9.23;6.18;;;26.20;76.30;;;;;;5072694;28;20052;-75
2023/08/17 00:02:44;;;;;;;8.40;5.80;;;26.20;76.30;;;;;;5072574;28;20032;-75
2023/08/17 00:05:10;;;;;;;11.50;6.20;;;26.10;76.70;;;;;;5072993;28;20024;-76
2023/08/17 00:07:36;;;;;;;9.52;5.75;;;26.00;76.60;;;;;;5073239;28;20028;-76
2023/08/17 00:10:03;;;;;;;8.23;5.80;;;26.00;76.50;;;;;;5073280;28;20020;-76
2023/08/17 00:12:28;;;;;;;9.13;5.45;;;26.00;76.40;;;;;;5073316;28;20558;-78
2023/08/17 00:14:54;;;;;;;11.00;5.88;;;26.00;76.70;;;;;;5073548;28;20017;-75
2023/08/17 00:17:22;;;;;;;13.32;6.50;;;26.00;77.30;;;;;;5054767;28;20024;-75
2023/08/17 00:19:48;;;;;;;7.60;5.30;;;25.90;76.70;;;;;;5072777;28;20021;-76
2023/08/17 00:22:13;;;;;;;8.35;6.03;;;25.90;76.70;;;;;;5054951;28;20076;-75
2023/08/17 00:24:41;;;;;;;7.25;5.88;;;25.90;76.80;;;;;;5072794;28;20020;-75
2023/08/17 00:27:07;;;;;;;11.30;5.25;;;25.90;77.00;;;;;;5054864;28;20029;-75
2023/08/17 00:29:35;;;;;;;8.98;5.72;;;25.90;77.20;;;;;;5072845;28;20479;-75
2023/08/17 00:32:01;;;;;;;8.50;5.88;;;25.90;77.30;;;;;;5073221;28;20060;-76
2023/08/17 00:34:27;;;;;;;8.50;5.53;;;25.80;77.10;;;;;;5072487;28;20555;-77
2023/08/17 00:36:52;;;;;;;7.57;5.90;;;25.80;77.00;;;;;;5072276;28;20494;-75
2023/08/17 00:39:19;;;;;;;10.45;5.82;;;25.80;77.00;;;;;;5072463;28;20043;-78
2023/08/17 00:41:45;;;;;;;8.40;5.63;;;25.80;76.80;;;;;;5072534;28;20037;-77
2023/08/17 00:44:11;;;;;;;9.32;5.78;;;25.80;76.70;;;;;;5072507;28;20056;-75
2023/08/17 00:46:38;;;;;;;8.50;5.50;;;25.80;76.80;;;;;;5072624;28;20478;-75
2023/08/17 00:49:05;;;;;;;9.57;5.68;;;25.80;77.30;;;;;;5072378;28;20052;-76
2023/08/17 00:51:31;;;;;;;7.07;5.88;;;25.70;77.10;;;;;;5072500;28;20490;-75
2023/08/17 00:53:59;;;;;;;7.57;5.32;;;25.70;77.00;;;;;;5072234;28;20075;-77
2023/08/17 00:56:26;;;;;;;9.00;5.93;;;25.70;77.50;;;;;;5072254;28;20039;-77
2023/08/17 00:58:52;;;;;;;7.68;5.85;;;25.70;77.40;;;;;;5069903;28;20033;-75
2023/08/17 01:01:20;;;;;;;6.97;6.22;;;25.70;77.60;;;;;;5069831;28;20386;-75
2023/08/17 01:03:45;;;;;;;8.18;6.15;;;25.70;77.40;;;;;;5069628;28;20044;-76
2023/08/17 01:06:12;;;;;;;6.60;5.80;;;25.70;77.60;;;;;;5072337;28;20097;-76
2023/08/17 01:08:38;;;;;;;7.90;6.13;;;25.70;77.60;;;;;;5072284;28;20059;-76
2023/08/17 01:11:09;;;;;;;6.40;5.63;;;25.60;77.60;;;;;;5072135;28;20364;-75
2023/08/17 01:13:44;;;;;;;7.88;5.82;;;25.60;77.50;;;;;;5071447;28;20032;-75
2023/08/17 01:16:15;;;;;;;7.28;5.68;;;25.60;77.60;;;;;;5076120;28;20370;-76
2023/08/17 01:18:44;;;;;;;7.80;6.65;;;25.60;78.60;;;;;;5076155;28;20025;-75
2023/08/17 01:21:15;;;;;;;8.63;5.85;;;25.60;79.40;;;;;;5075036;28;20035;-76
2023/08/17 01:23:41;;;;;;;9.60;5.95;;;25.50;79.20;;;;;;5057719;28;20033;-77
2023/08/17 01:26:07;;;;;;;7.32;6.22;;;25.50;79.40;;;;;;5075784;28;20078;-75
2023/08/17 01:28:33;;;;;;;8.13;5.97;;;25.50;79.00;;;;;;5075435;28;20037;-76
2023/08/17 01:31:11;;;;;;;7.05;5.90;;;25.40;79.30;;;;;;5075742;28;20017;-76
2023/08/17 01:33:46;;;;;;;10.23;6.10;;;25.40;79.00;;;;;;5075286;28;20361;-77
2023/08/17 01:36:25;;;;;;;7.15;5.65;;;25.40;78.70;;;;;;5075618;28;20490;-75
2023/08/17 01:38:55;;;;;;;8.68;5.78;;;25.40;78.50;;;;;;5075921;28;20662;-76
2023/08/17 01:41:22;;;;;;;7.90;5.80;;;25.30;78.30;;;;;;5075766;28;20554;-76
2023/08/17 01:43:49;;;;;;;12.25;6.20;;;25.40;78.30;;;;;;5075460;28;20032;-76
2023/08/17 01:46:17;;;;;;;6.15;5.53;;;25.40;78.50;;;;;;5075648;28;20111;-81
2023/08/17 01:48:46;;;;;;;8.27;6.18;;;25.40;78.80;;;;;;5075927;28;20021;-78
2023/08/17 01:51:19;;;;;;;8.23;5.88;;;25.30;79.20;;;;;;5075804;28;20024;-76
2023/08/17 01:53:45;;;;;;;7.15;6.20;;;25.20;79.30;;;;;;5075925;28;20036;-80
2023/08/17 01:56:11;;;;;;;7.05;5.30;;;25.20;79.30;;;;;;5075598;28;20021;-76
2023/08/17 01:58:37;;;;;;;6.55;5.43;;;25.20;79.20;;;;;;5075941;28;20111;-77
2023/08/17 02:01:03;;;;;;;7.10;5.68;;;25.20;78.90;;;;;;5076666;28;20025;-76
2023/08/17 02:03:28;;;;;;;7.65;6.10;;;25.10;78.70;;;;;;5076452;28;20032;-81
2023/08/17 02:05:58;;;;;;;9.65;5.82;;;25.10;78.90;;;;;;5057372;28;20056;-78
2023/08/17 02:08:24;;;;;;;9.10;5.80;;;25.10;78.80;;;;;;5075122;28;20485;-79
2023/08/17 02:10:50;;;;;;;8.75;5.85;;;25.10;78.70;;;;;;5075351;28;20029;-81
2023/08/17 02:13:16;;;;;;;7.75;5.72;;;25.00;79.10;;;;;;5075166;28;20036;-79
2023/08/17 02:15:42;;;;;;;9.27;5.55;;;25.10;79.10;;;;;;5056921;28;20032;-76
2023/08/17 02:18:08;;;;;;;8.90;6.05;;;25.10;79.00;;;;;;5074647;28;20016;-75
2023/08/17 02:20:34;;;;;;;9.35;6.00;;;25.00;78.80;;;;;;5074568;28;20036;-75
2023/08/17 02:22:59;;;;;;;7.18;6.05;;;25.00;79.30;;;;;;5074301;28;20025;-75
2023/08/17 02:25:26;;;;;;;6.55;5.80;;;25.00;79.10;;;;;;5074130;28;20016;-81
2023/08/17 02:27:52;;;;;;;9.77;5.82;;;25.00;79.00;;;;;;5074070;28;20103;-78
2023/08/17 02:30:18;;;;;;;6.43;5.82;;;25.00;79.20;;;;;;5074477;28;20492;-76
2023/08/17 02:32:44;;;;;;;6.72;6.13;;;25.00;79.20;;;;;;5074213;28;20120;-75
2023/08/17 02:35:10;;;;;;;7.07;6.47;;;25.00;79.00;;;;;;5074070;28;20025;-77
2023/08/17 02:37:36;;;;;;;8.30;6.35;;;25.00;79.40;;;;;;5074160;28;20074;-75
2023/08/17 02:40:02;;;;;;;10.38;5.80;;;24.90;79.20;;;;;;5074113;28;20021;-77
2023/08/17 02:42:28;;;;;;;6.45;5.85;;;25.00;79.60;;;;;;5074312;28;20031;-75
2023/08/17 02:44:54;;;;;;;7.53;6.20;;;25.00;79.50;;;;;;5074511;28;20508;-75
2023/08/17 02:47:19;;;;;;;10.38;7.07;;;24.90;79.60;;;;;;5074400;28;20024;-75
2023/08/17 02:49:45;;;;;;;8.52;6.18;;;24.90;79.70;;;;;;5074365;28;20103;-79
2023/08/17 02:52:11;;;;;;;8.40;6.22;;;24.90;79.90;;;;;;5055759;28;20021;-78
2023/08/17 02:54:37;;;;;;;10.35;5.60;;;24.90;79.80;;;;;;5074251;28;20032;-75
2023/08/17 02:57:02;;;;;;;8.18;6.03;;;24.90;79.70;;;;;;5073852;28;20040;-76
2023/08/17 02:59:28;;;;;;;7.90;6.10;;;24.90;79.20;;;;;;5074304;28;20028;-74
2023/08/17 03:01:54;;;;;;;11.63;6.13;;;24.80;79.30;;;;;;5073859;28;20028;-74
2023/08/17 03:04:20;;;;;;;7.15;5.80;;;24.90;79.70;;;;;;5073942;28;20024;-74
2023/08/17 03:06:46;;;;;;;7.30;5.60;;;24.90;79.60;;;;;;5073949;28;20031;-74
2023/08/17 03:09:11;;;;;;;7.85;6.30;;;24.90;79.50;;;;;;5073863;28;20078;-74
2023/08/17 03:11:37;;;;;;;11.45;6.40;;;24.80;79.50;;;;;;5073362;28;20024;-75
2023/08/17 03:14:03;;;;;;;9.50;6.35;;;24.80;79.60;;;;;;5073465;28;20028;-76
2023/08/17 03:16:32;;;;;;;6.57;5.72;;;24.80;79.40;;;;;;5073394;28;20024;-75
2023/08/17 03:18:58;;;;;;;8.57;5.80;;;24.80;79.40;;;;;;5073843;28;20024;-75
2023/08/17 03:21:24;;;;;;;8.75;6.43;;;24.80;79.50;;;;;;5073647;28;20060;-75
2023/08/17 03:23:50;;;;;;;9.38;6.53;;;24.80;79.60;;;;;;5073637;28;20029;-75
2023/08/17 03:26:16;;;;;;;7.82;5.90;;;24.80;79.90;;;;;;5065302;28;20021;-75
2023/08/17 03:28:41;;;;;;;6.88;6.15;;;24.80;79.90;;;;;;5053142;28;20086;-78
2023/08/17 03:31:08;;;;;;;10.13;6.65;;;24.70;79.90;;;;;;5053320;28;20028;-75
2023/08/17 03:33:35;;;;;;;9.35;6.88;;;24.70;79.80;;;;;;5053216;28;20144;-75
2023/08/17 03:36:02;;;;;;;10.18;7.15;;;24.70;80.70;;;;;;5052847;28;20037;-75
2023/08/17 03:38:28;;;;;;;8.02;7.22;;;24.70;80.80;;;;;;5035304;28;20082;-74
2023/08/17 03:40:54;;;;;;;10.15;6.80;;;24.70;80.90;;;;;;5052958;28;20029;-74
2023/08/17 03:43:20;;;;;;;9.25;7.25;;;24.70;81.30;;;;;;5052877;28;20094;-75
2023/08/17 03:45:45;;;;;;;6.95;6.25;;;24.60;81.30;;;;;;5052698;28;20029;-74
2023/08/17 03:48:12;;;;;;;9.15;7.10;;;24.60;81.40;;;;;;5052658;28;20046;-77
2023/08/17 03:50:37;;;;;;;7.05;6.18;;;24.60;81.60;;;;;;5053095;28;20055;-75
2023/08/17 03:53:04;;;;;;;9.20;6.82;;;24.50;81.60;;;;;;5053214;28;20075;-75
2023/08/17 03:55:30;;;;;;;8.13;6.93;;;24.50;81.40;;;;;;5052990;28;20028;-74
2023/08/17 03:57:55;;;;;;;9.60;6.80;;;24.50;81.60;;;;;;5052604;28;20372;-74
2023/08/17 04:00:21;;;;;;;10.27;6.82;;;24.50;81.30;;;;;;5052801;28;20045;-74
2023/08/17 04:02:47;;;;;;;8.57;7.00;;;24.40;81.50;;;;;;5052730;28;20032;-75
2023/08/17 04:05:13;;;;;;;11.93;7.50;;;24.40;81.70;;;;;;5052617;28;20025;-73
2023/08/17 04:07:39;;;;;;;9.02;6.65;;;24.40;81.80;;;;;;5052506;28;20040;-74
2023/08/17 04:10:06;;;;;;;8.75;7.75;;;24.40;81.90;;;;;;5052723;28;20029;-73
2023/08/17 04:12:32;;;;;;;8.95;7.38;;;24.30;82.40;;;;;;5034787;28;20025;-74
2023/08/17 04:14:57;;;;;;;11.13;6.53;;;24.30;82.70;;;;;;5052476;28;20098;-76
2023/08/17 04:17:23;;;;;;;10.25;7.15;;;24.30;82.50;;;;;;5034562;28;20028;-75
2023/08/17 04:19:49;;;;;;;10.15;6.30;;;24.30;82.00;;;;;;5034623;28;20029;-75
2023/08/17 04:22:15;;;;;;;10.95;6.80;;;24.30;81.80;;;;;;5069679;28;20024;-75
2023/08/17 04:24:40;;;;;;;9.32;6.50;;;24.30;82.00;;;;;;5072619;28;20408;-76
2023/08/17 04:27:06;;;;;;;9.85;6.18;;;24.30;81.70;;;;;;5054686;28;20067;-75
2023/08/17 04:29:32;;;;;;;9.98;6.32;;;24.30;81.60;;;;;;5071009;28;20116;-75
2023/08/17 04:31:58;;;;;;;10.38;6.90;;;24.30;81.50;;;;;;5072190;28;20031;-75
2023/08/17 04:34:25;;;;;;;9.43;6.45;;;24.30;81.50;;;;;;5072198;28;20146;-77
2023/08/17 04:36:50;;;;;;;10.73;6.53;;;24.30;81.50;;;;;;5072353;28;20123;-75
2023/08/17 04:39:17;;;;;;;7.75;6.78;;;24.30;81.50;;;;;;5072859;28;20048;-76
2023/08/17 04:41:42;;;;;;;11.55;7.88;;;24.40;81.60;;;;;;5072731;28;20055;-76
2023/08/17 04:44:08;;;;;;;9.20;6.80;;;24.30;82.00;;;;;;5052473;28;20066;-74
2023/08/17 04:46:35;;;;;;;9.27;6.53;;;24.30;82.30;;;;;;5070664;28;20017;-76
2023/08/17 04:49:00;;;;;;;9.70;6.60;;;24.30;81.80;;;;;;5070881;28;20025;-76
2023/08/17 04:51:26;;;;;;;8.20;7.03;;;24.30;81.90;;;;;;5074770;28;20021;-79
2023/08/17 04:53:52;;;;;;;9.55;6.85;;;24.30;82.10;;;;;;5074687;28;20032;-75
2023/08/17 04:56:18;;;;;;;9.15;6.88;;;24.30;81.70;;;;;;5056339;28;20565;-76
2023/08/17 04:58:44;;;;;;;10.93;6.88;;;24.30;82.80;;;;;;5075920;28;20033;-78
2023/08/17 05:01:10;;;;;;;7.88;6.90;;;24.30;82.60;;;;;;5076223;28;20048;-79
2023/08/17 05:03:36;;;;;;;8.73;7.30;;;24.30;82.80;;;;;;5076240;28;20032;-76
2023/08/17 05:06:03;;;;;;;15.60;7.22;;;24.20;82.70;;;;;;5075962;28;20019;-77
2023/08/17 05:08:29;;;;;;;12.45;7.47;;;24.20;83.30;;;;;;5076062;28;20033;-76
2023/08/17 05:10:55;;;;;;;12.13;7.63;;;;;;;;;;5075845;28;20355;-79
2023/08/17 05:13:20;;;;;;;13.50;8.13;;;24.30;82.80;;;;;;5075978;28;20119;-76
2023/08/17 05:15:46;;;;;;;19.33;7.93;;;24.30;83.20;;;;;;5076102;28;20052;-78
2023/08/17 05:18:12;;;;;;;14.05;7.47;;;24.20;83.20;;;;;;5058103;28;20059;-76
2023/08/17 05:20:38;;;;;;;16.70;8.48;;;24.30;83.50;;;;;;5057827;28;20056;-76
2023/08/17 05:23:04;;;;;;;13.45;7.75;;;24.20;83.60;;;;;;5075540;28;20021;-76
2023/08/17 05:25:29;;;;;;;10.35;7.80;;;24.30;84.40;;;;;;5075525;28;20024;-76
2023/08/17 05:27:55;;;;;;;10.45;7.10;;;24.20;84.30;;;;;;5075576;28;20071;-75
2023/08/17 05:30:21;;;;;;;9.88;6.82;;;24.20;84.00;;;;;;5057817;28;20051;-78
2023/08/17 05:32:47;;;;;;;8.50;6.90;;;24.30;83.80;;;;;;5075885;28;20037;-75
2023/08/17 05:35:13;;;;;;;12.13;6.22;;;24.30;83.60;;;;;;5057098;28;20056;-75
2023/08/17 05:37:39;;;;;;;10.27;6.57;;;24.20;83.10;;;;;;5075350;28;20032;-75
2023/08/17 05:40:05;;;;;;;7.38;6.38;;;24.30;83.10;;;;;;5075060;28;20031;-75
2023/08/17 05:42:31;;;;;;;9.60;5.95;;;24.30;82.90;;;;;;5075263;28;20060;-76
2023/08/17 05:44:57;;;;;;;8.57;6.00;;;24.40;83.00;;;;;;5075082;28;20082;-75
2023/08/17 05:47:22;;;;;;;14.75;6.78;;;24.30;83.20;;;;;;5075205;28;20033;-75
2023/08/17 05:49:48;;;;;;;9.13;6.22;;;24.40;83.20;;;;;;5075277;28;20024;-77
2023/08/17 05:52:14;;;;;;;7.82;6.30;;;24.40;83.10;;;;;;5074992;28;20028;-76
2023/08/17 05:54:39;;;;;;;8.30;6.47;;;24.50;83.20;;;;;;5075011;28;20024;-78
2023/08/17 05:57:05;;;;;;;11.57;6.40;;;24.50;83.20;;;;;;5075311;28;20111;-77
2023/08/17 05:59:31;;;;;;;10.40;6.70;;;24.50;83.20;;;;;;5075106;28;20024;-75
2023/08/17 06:01:57;;;;;;;8.77;6.57;;;24.50;83.00;;;;;;5073371;28;20024;-75
2023/08/17 06:04:22;;;;;;;11.18;6.40;;;24.60;83.00;;;;;;5074781;28;20039;-76
2023/08/17 06:06:49;;;;;;;8.23;6.40;;;24.60;83.10;;;;;;5074795;28;20082;-74
2023/08/17 06:09:15;;;;;;;12.13;7.60;;;24.70;83.10;;;;;;5073673;28;20017;-75
2023/08/17 06:11:40;;;;;;;14.55;8.48;;;24.70;83.00;;;;;;5056902;28;20055;-75
2023/08/17 06:14:06;;;;;;;18.25;10.88;;;24.70;82.90;;;;;;5074822;28;20033;-75
2023/08/17 06:16:32;;;;;;;18.33;12.30;;;24.80;82.80;;;;;;5074689;28;20020;-74
2023/08/17 06:18:58;;;;;;;18.77;12.07;;;24.80;82.90;;;;;;5074593;28;20101;-77
2023/08/17 06:21:24;;;;;;;16.00;9.98;;;24.80;82.80;;;;;;5074604;28;20028;-78
2023/08/17 06:23:49;;;;;;;16.92;8.30;;;24.80;82.90;;;;;;5074314;28;20025;-78
2023/08/17 06:26:15;;;;;;;11.20;7.35;;;24.90;82.80;;;;;;5074264;28;20027;-78
2023/08/17 06:28:41;;;;;;;9.30;7.38;;;24.90;82.70;;;;;;5074174;28;20108;-78
2023/08/17 06:31:07;;;;;;;15.02;7.10;;;24.90;82.70;;;;;;5074281;28;20195;-78
2023/08/17 06:33:32;;;;;;;9.68;6.60;;;25.00;82.80;;;;;;5073181;28;20037;-78
2023/08/17 06:35:58;;;;;;;9.57;6.78;;;25.00;82.80;;;;;;5074060;28;20040;-78
2023/08/17 06:38:24;;;;;;;13.93;6.95;;;25.00;82.60;;;;;;5074146;28;20112;-79
2023/08/17 06:40:52;;;;;;;8.82;6.30;;;25.10;82.50;;;;;;5074304;28;20039;-79
2023/08/17 06:43:18;;;;;;;11.45;6.30;;;25.10;82.30;;;;;;5073336;28;20375;-79
2023/08/17 06:45:44;;;;;;;11.65;6.65;;;25.10;82.20;;;;;;5071728;28;20027;-79
2023/08/17 06:48:10;;;;;;;12.60;7.00;;;25.20;82.20;;;;;;5072827;28;20103;-79
2023/08/17 06:50:35;;;;;;;10.43;6.63;;;25.20;82.20;;;;;;5073775;28;20501;-78
2023/08/17 06:53:02;;;;;;;8.60;6.28;;;25.20;82.10;;;;;;5074094;28;20117;-79
2023/08/17 06:55:28;;;;;;;6.85;6.20;;;25.20;82.20;;;;;;5073795;28;20020;-79
2023/08/17 06:57:54;;;;;;;9.13;6.35;;;25.30;82.20;;;;;;5073693;28;20527;-79
2023/08/17 07:00:21;;;;;;;9.30;6.20;;;25.30;82.00;;;;;;5073471;28;20016;-78
2023/08/17 07:02:50;;;;;;;9.70;5.95;;;25.40;82.10;;;;;;5073491;28;20428;-79
2023/08/17 07:05:16;;;;;;;9.32;6.45;;;25.40;82.00;;;;;;5073541;28;20028;-79
2023/08/17 07:07:42;;;;;;;8.00;6.82;;;25.40;81.60;;;;;;5073712;28;20028;-79
2023/08/17 07:10:10;;;;;;;7.78;6.60;;;25.40;81.20;;;;;;5073388;28;20154;-91
2023/08/17 07:12:37;;;;;;;10.15;6.15;;;25.50;81.00;;;;;;5074060;28;20534;-91
2023/08/17 07:15:04;;;;;;;11.35;6.18;;;25.50;81.00;;;;;;5074485;28;20035;-92
2023/08/17 07:17:30;;;;;;;8.55;5.93;;;25.60;81.10;;;;;;5074537;28;20031;-91
2023/08/17 07:19:56;;;;;;;11.70;6.65;;;25.60;81.00;;;;;;5077423;28;20057;-89
2023/08/17 07:22:21;;;;;;;6.85;6.15;;;25.60;81.10;;;;;;5081944;28;20028;-85
2023/08/17 07:24:47;;;;;;;9.18;6.57;;;25.70;81.30;;;;;;5074010;28;20099;-92
2023/08/17 07:27:13;;;;;;;6.82;5.93;;;25.70;81.30;;;;;;5074776;28;20025;-91
2023/08/17 07:29:38;;;;;;;9.90;6.45;;;25.70;81.30;;;;;;5057012;28;20028;-91
2023/08/17 07:32:05;;;;;;;7.78;6.22;;;25.70;81.30;;;;;;5074471;28;20470;-92
2023/08/17 07:34:31;;;;;;;10.60;6.10;;;25.80;80.90;;;;;;5074179;28;20040;-92
2023/08/17 07:36:57;;;;;;;9.38;6.90;;;25.90;80.90;;;;;;5074213;28;20551;-92
2023/08/17 07:39:23;;;;;;;8.57;6.47;;;25.90;80.80;;;;;;5075695;28;20028;-92
2023/08/17 07:41:49;;;;;;;9.05;6.35;;;26.00;80.70;;;;;;5077447;28;20031;-83
2023/08/17 07:44:14;;;;;;;9.82;5.82;;;26.00;80.70;;;;;;5075668;28;20050;-91
2023/08/17 07:46:40;;;;;;;6.75;6.05;;;26.00;80.80;;;;;;5074544;28;20056;-93
2023/08/17 07:49:06;;;;;;;8.82;6.03;;;26.10;80.80;;;;;;5074361;28;20024;-85
2023/08/17 07:51:33;;;;;;;10.52;6.57;;;26.20;80.50;;;;;;5073501;28;20039;-87
2023/08/17 07:54:00;;;;;;;8.93;6.10;;;26.20;80.20;;;;;;5055865;28;20051;-92
2023/08/17 07:56:26;;;;;;;7.63;5.90;;;26.30;80.10;;;;;;5074726;28;20440;-85
2023/08/17 07:58:54;;;;;;;13.18;6.07;;;26.30;79.50;;;;;;5077000;28;20106;-91
2023/08/17 08:01:19;;;;;;;8.77;5.60;;;26.40;79.60;;;;;;5076013;28;20031;-90
2023/08/17 08:03:45;;;;;;;11.93;5.70;;;26.40;79.50;;;;;;5077582;28;20024;-89
2023/08/17 08:06:11;;;;;;;10.95;5.10;;;26.50;78.80;;;;;;5077645;28;20020;-89
2023/08/17 08:08:37;;;;;;;6.32;5.10;;;26.50;78.30;;;;;;5076396;28;20025;-90
2023/08/17 08:11:04;;;;;;;13.13;5.70;;;26.50;78.40;;;;;;5077450;28;20017;-90
2023/08/17 08:13:30;;;;;;;6.65;5.25;;;26.50;78.60;;;;;;5079465;28;20029;-92
2023/08/17 08:15:57;;;;;;;9.75;5.20;;;26.60;79.20;;;;;;5092392;28;20005;-89
2023/08/17 08:18:23;;;;;;;9.52;4.85;;;26.60;78.90;;;;;;5088964;28;20025;-90
2023/08/17 08:20:49;;;;;;;7.32;5.55;;;26.70;78.00;;;;;;5092961;28;20035;-89
2023/08/17 08:23:14;;;;;;;9.82;5.47;;;26.80;77.90;;;;;;5090562;28;20032;-92
2023/08/17 08:25:42;;;;;;;8.93;5.55;;;26.80;78.20;;;;;;5076970;28;20025;-85
2023/08/17 08:28:08;;;;;;;6.43;4.97;;;26.90;77.90;;;;;;5077679;28;20024;-92
2023/08/17 08:30:34;;;;;;;6.85;4.90;;;26.90;77.20;;;;;;5077930;28;20051;-81
2023/08/17 08:33:00;;;;;;;7.90;5.07;;;27.00;76.20;;;;;;5077776;28;20080;-91
2023/08/17 08:35:27;;;;;;;8.88;5.03;;;27.00;75.80;;;;;;5077268;28;20028;-90
2023/08/17 08:37:55;;;;;;;12.73;5.07;;;27.00;75.90;;;;;;5077732;28;20477;-91
2023/08/17 08:40:27;;;;;;;8.18;4.95;;;27.10;75.80;;;;;;5077603;28;20100;-91
2023/08/17 08:42:53;;;;;;;8.75;4.70;;;27.10;75.60;;;;;;5077687;28;20033;-91
2023/08/17 08:45:19;;;;;;;12.50;4.82;;;27.20;75.70;;;;;;5077600;28;20122;-92
2023/08/17 08:47:46;;;;;;;11.13;6.18;;;27.20;75.70;;;;;;5059530;28;20035;-91
2023/08/17 08:50:18;;;;;;;7.13;4.82;;;27.30;75.90;;;;;;5077670;28;20021;-92
2023/08/17 08:53:00;;;;;;;5.60;4.85;;;27.40;75.90;;;;;;5080392;28;20397;-86
2023/08/17 08:55:33;;;;;;;5.78;4.63;;;27.40;75.10;;;;;;5078842;28;20042;-83
2023/08/17 08:57:59;;;;;;;9.32;5.20;;;27.40;74.70;;;;;;5077069;28;20409;-89
2023/08/17 09:00:26;;;;;;;6.93;4.40;;;27.50;74.60;;;;;;5076929;28;20021;-90
2023/08/17 09:02:53;;;;;;;7.03;4.20;;;27.50;74.50;;;;;;5077077;28;20032;-91
2023/08/17 09:05:19;;;;;;;12.45;5.15;;;27.60;74.30;;;;;;5077522;28;20507;-91
2023/08/17 09:07:50;;;;;;;8.43;4.38;;;27.60;73.90;;;;;;5077671;28;20426;-91
2023/08/17 09:10:16;;;;;;;13.73;4.93;;;27.60;73.90;;;;;;5078538;28;20367;-91
2023/08/17 09:12:43;;;;;;;7.80;5.30;;;27.70;73.80;;;;;;5077948;28;20044;-82
2023/08/17 09:15:09;;;;;;;5.90;4.22;;;27.70;72.90;;;;;;5079236;28;20013;-89
2023/08/17 09:17:35;;;;;;;4.28;3.42;;;27.80;71.60;;;;;;5077008;28;20029;-90
2023/08/17 09:20:02;;;;;;;4.95;3.42;;;27.80;70.80;;;;;;5075998;28;20024;-88
2023/08/17 09:22:41;;;;;;;7.72;3.63;;;27.80;70.60;;;;;;5076096;28;20028;-85
2023/08/17 09:25:09;;;;;;;7.40;3.63;;;27.90;70.20;;;;;;5075541;28;20082;-87
2023/08/17 09:27:36;;;;;;;4.85;3.85;;;27.90;69.30;;;;;;5075569;28;20024;-87
2023/08/17 09:30:06;;;;;;;6.57;3.60;;;27.90;69.50;;;;;;5075638;28;20028;-88
2023/08/17 09:32:33;;;;;;;7.20;3.47;;;28.00;69.30;;;;;;5075847;28;20028;-88
2023/08/17 09:35:06;;;;;;;7.07;3.45;;;28.00;68.60;;;;;;5075538;28;20101;-85
2023/08/17 09:37:33;;;;;;;5.00;3.60;;;28.00;68.20;;;;;;5074611;28;20070;-86
2023/08/17 09:39:59;;;;;;;6.97;3.75;;;28.10;68.10;;;;;;5075310;28;20082;-88
2023/08/17 09:42:27;;;;;;;4.43;3.80;;;28.10;68.50;;;;;;5075168;28;20055;-87
2023/08/17 09:44:53;;;;;;;8.23;3.80;;;;;;;;;;5075218;28;20027;-87
2023/08/17 09:47:22;;;;;;;6.60;3.83;;;28.20;67.80;;;;;;5075342;28;20499;-86
2023/08/17 09:49:55;;;;;;;7.70;3.70;;;28.20;68.10;;;;;;5057422;28;20391;-82
2023/08/17 09:52:23;;;;;;;6.70;3.60;;;28.20;67.50;;;;;;5075312;28;20028;-87
2023/08/17 09:54:51;;;;;;;7.72;3.42;;;28.30;67.60;;;;;;5075513;28;20055;-86
2023/08/17 09:57:17;;;;;;;9.30;3.88;;;28.30;68.00;;;;;;5062511;28;20046;-89
2023/08/17 09:59:43;;;;;;;8.45;3.97;;;28.30;67.90;;;;;;5078719;28;20059;-86
2023/08/17 10:02:29;;;;;;;5.65;3.78;;;28.30;68.20;;;;;;5074583;28;20100;-89
2023/08/17 10:04:57;;;;;;;8.23;4.00;;;28.40;68.60;;;;;;5075448;28;20025;-86
2023/08/17 10:07:30;;;;;;;4.68;3.50;;;28.40;69.00;;;;;;5075104;28;20029;-86
2023/08/17 10:10:06;;;;;;;5.13;3.95;;;28.50;68.60;;;;;;5075023;28;20020;-85
2023/08/17 10:13:08;;;;;;;6.40;4.47;;;28.50;68.60;;;;;;5074894;28;20028;-87
2023/08/17 10:15:38;;;;;;;6.63;3.35;;;28.50;68.80;;;;;;5071011;28;20148;-85
2023/08/17 10:18:41;;;;;;;7.38;3.90;;;28.60;69.10;;;;;;5074813;28;20020;-87
2023/08/17 10:21:13;;;;;;;7.55;3.83;;;28.60;69.50;;;;;;5074640;28;20021;-87
2023/08/17 10:23:39;;;;;;;6.43;3.95;;;28.70;68.10;;;;;;5074229;28;20508;-85
2023/08/17 10:26:08;;;;;;;5.75;3.80;;;28.70;67.00;;;;;;5074912;28;20104;-85
2023/08/17 10:28:34;;;;;;;5.80;3.83;;;28.70;66.80;;;;;;5075036;28;20104;-85
2023/08/17 10:31:00;;;;;;;4.32;3.65;;;28.80;67.10;;;;;;5074362;28;20162;-83
2023/08/17 10:33:28;;;;;;;6.93;3.85;;;28.80;66.90;;;;;;5056274;28;20028;-80
2023/08/17 10:35:55;;;;;;;5.22;3.88;;;28.80;67.30;;;;;;5073981;28;20433;-81
2023/08/17 10:38:21;;;;;;;6.38;4.00;;;28.90;66.80;;;;;;5074062;28;20463;-84
2023/08/17 10:41:08;;;;;;;6.00;4.22;;;28.90;66.30;;;;;;5074033;28;20051;-88
2023/08/17 10:43:36;;;;;;;5.90;3.88;;;28.90;66.50;;;;;;5073884;28;20475;-78
2023/08/17 10:46:17;;;;;;;4.68;3.70;;;29.00;66.70;;;;;;5074078;28;20034;-89
2023/08/17 10:48:44;;;;;;;9.77;4.03;;;29.00;66.50;;;;;;5073481;28;20020;-85
2023/08/17 10:51:13;;;;;;;5.88;4.00;;;29.00;66.60;;;;;;5073064;28;20111;-87
2023/08/17 10:53:42;;;;;;;9.77;4.68;;;29.00;64.90;;;;;;5073866;28;20083;-81
2023/08/17 10:56:14;;;;;;;7.30;5.15;;;29.00;65.00;;;;;;5074195;28;20321;-85
2023/08/17 10:58:42;;;;;;;6.40;4.22;;;29.10;65.00;;;;;;5055888;28;20094;-81
2023/08/17 11:01:20;;;;;;;10.40;4.03;;;29.10;65.00;;;;;;5073816;28;20028;-85
2023/08/17 11:03:46;;;;;;;5.00;4.38;;;29.10;65.00;;;;;;5073606;28;20020;-85
2023/08/17 11:06:18;;;;;;;5.50;3.92;;;29.10;64.50;;;;;;5073727;28;20032;-85
2023/08/17 11:08:55;;;;;;;8.05;4.22;;;29.20;65.10;;;;;;5073601;28;20027;-85
2023/08/17 11:11:22;;;;;;;5.72;4.30;;;29.20;64.40;;;;;;5073696;28;20359;-83
2023/08/17 11:13:49;;;;;;;4.97;3.90;;;29.20;64.80;;;;;;5073595;28;20119;-85
2023/08/17 11:16:16;;;;;;;4.25;3.90;;;29.30;65.40;;;;;;5065491;28;20166;-87
2023/08/17 11:18:44;;;;;;;8.15;5.18;;;29.30;65.40;;;;;;5073149;28;20032;-86
2023/08/17 11:21:10;;;;;;;7.72;3.92;;;29.40;65.40;;;;;;5073606;28;20496;-85
2023/08/17 11:23:37;;;;;;;5.20;3.92;;;29.40;65.00;;;;;;5073549;28;20025;-87
2023/08/17 11:26:03;;;;;;;10.38;4.28;;;29.50;65.20;;;;;;5073244;28;20021;-86
2023/08/17 11:28:36;;;;;;;4.28;3.88;;;29.50;65.30;;;;;;5073402;28;20028;-87
2023/08/17 11:31:06;;;;;;;7.72;4.40;;;29.50;65.10;;;;;;5073164;28;20534;-85
2023/08/17 11:33:33;;;;;;;5.80;4.00;;;29.60;65.30;;;;;;5073268;28;20028;-83
2023/08/17 11:36:01;;;;;;;4.75;3.90;;;29.60;64.70;;;;;;5073101;28;20060;-86
2023/08/17 11:38:41;;;;;;;5.25;3.97;;;29.70;64.00;;;;;;5073027;28;20056;-85
2023/08/17 11:41:10;;;;;;;9.00;4.57;;;29.70;63.80;;;;;;5053979;28;20512;-85
2023/08/17 11:43:36;;;;;;;5.95;4.20;;;29.70;63.50;;;;;;5073164;28;20443;-85
2023/08/17 11:46:03;;;;;;;7.63;4.60;;;29.70;62.80;;;;;;5072768;28;20100;-86
2023/08/17 11:48:30;;;;;;;6.18;3.83;;;29.80;62.90;;;;;;5072745;28;20033;-88
2023/08/17 11:50:56;;;;;;;6.38;4.30;;;29.80;63.30;;;;;;5072808;28;20023;-86
2023/08/17 11:53:35;;;;;;;8.25;4.85;;;29.80;63.20;;;;;;5072514;28;20063;-84
2023/08/17 11:56:01;;;;;;;5.45;4.35;;;29.90;63.20;;;;;;5072461;28;20029;-85
2023/08/17 11:58:43;;;;;;;4.85;3.85;;;29.90;63.10;;;;;;5054560;28;20520;-84
2023/08/17 12:01:11;;;;;;;6.20;4.70;;;29.90;63.30;;;;;;5073087;28;20048;-83
2023/08/17 12:03:37;;;;;;;6.15;4.75;;;30.00;63.10;;;;;;5054643;28;20025;-81
2023/08/17 12:06:08;;;;;;;5.60;4.50;;;30.00;62.90;;;;;;5072578;28;20398;-83
2023/08/17 12:08:34;;;;;;;4.63;4.20;;;30.00;63.10;;;;;;5072705;28;20642;-77
2023/08/17 12:11:00;;;;;;;6.40;4.30;;;30.00;63.00;;;;;;5072340;28;20017;-84
2023/08/17 12:13:37;;;;;;;4.72;3.58;;;30.10;63.00;;;;;;5072708;28;20089;-85
2023/08/17 12:16:15;;;;;;;5.60;4.03;;;30.10;62.40;;;;;;5054315;28;20025;-83
2023/08/17 12:18:53;;;;;;;7.47;4.43;;;30.10;62.90;;;;;;5072409;28;20025;-83
2023/08/17 12:21:26;;;;;;;5.93;4.18;;;30.20;62.70;;;;;;5072477;28;20021;-79
2023/08/17 12:23:52;;;;;;;4.95;4.45;;;30.20;62.50;;;;;;5072612;28;20486;-78
2023/08/17 12:26:21;;;;;;;4.70;4.18;;;30.20;62.20;;;;;;5072746;28;20109;-82
2023/08/17 12:28:48;;;;;;;7.70;4.40;;;30.30;61.90;;;;;;5054121;28;20031;-78
2023/08/17 12:31:20;;;;;;;6.88;4.63;;;30.30;61.90;;;;;;5072615;28;20032;-79
2023/08/17 12:33:46;;;;;;;4.95;4.10;;;30.30;61.30;;;;;;5072388;28;20143;-76
2023/08/17 12:36:12;;;;;;;7.07;3.85;;;30.30;61.10;;;;;;5069775;28;20502;-76
2023/08/17 12:38:41;;;;;;;5.43;3.78;;;30.30;61.50;;;;;;5072366;28;20028;-80
2023/08/17 12:41:07;;;;;;;4.70;4.03;;;30.30;60.60;;;;;;5072410;28;20020;-77
2023/08/17 12:43:33;;;;;;;6.88;4.07;;;30.30;61.40;;;;;;5072738;28;20359;-81
2023/08/17 12:45:59;;;;;;;5.00;3.97;;;30.30;61.60;;;;;;5072131;28;20024;-81